This is the latest recevied weather packets stored in our database for station/object GW1496. If no packets are shown the sender has not sent any weather packets the latest 10 day(s).
| Time | Temp. | Humidity | Pressure | Rain* | Wind** | Luminosity | Snow |
|---|---|---|---|---|---|---|---|
| 1777149388 | 18.89° C | 79% | 1001 hPa | 2.29 mm | - | - | - |
| 1777149020 | 18.89° C | 79% | 1001 hPa | 2.29 mm | - | - | - |
| 1777148655 | 18.89° C | 78% | 1001 hPa | 2.29 mm | - | - | - |
| 1777147975 | 19.44° C | 78% | 1002 hPa | 2.29 mm | - | - | - |
| 1777147250 | 18.89° C | 80% | 1002 hPa | 2.29 mm | - | - | - |
| 1777145776 | 18.89° C | 80% | 1002 hPa | 2.29 mm | - | - | - |
| 1777143993 | 18.33° C | 82% | 1002 hPa | 2.29 mm | - | - | - |
| 1777143284 | 18.33° C | 84% | 1002 hPa | 2.29 mm | - | - | - |
| 1777142900 | 18.33° C | 84% | 1002 hPa | 2.29 mm | - | - | - |
| 1777140042 | 18.33° C | 82% | 1002 hPa | 2.29 mm | - | - | - |
| 1777138610 | 17.78° C | 86% | 1002 hPa | 1.78 mm | - | - | - |
| 1777132457 | 17.78° C | 83% | 1003 hPa | 1.02 mm | - | - | - |
| 1777132131 | 17.22° C | 83% | 1003 hPa | 1.02 mm | - | - | - |
| 1777131375 | 16.67° C | 87% | 1003 hPa | 1.02 mm | - | - | - |
| 1777129214 | 18.33° C | 66% | 1002 hPa | 0 mm | - | - | - |
| 1777128501 | 18.33° C | 64% | 1002 hPa | 0 mm | - | - | - |
| 1777127450 | 17.78° C | 65% | 1002 hPa | 0 mm | - | - | - |
| 1777123843 | 14.44° C | 73% | 1002 hPa | 0 mm | - | - | - |
| 1777123476 | 13.89° C | 77% | 1002 hPa | 0 mm | - | - | - |
| 1777121660 | 13.33° C | 79% | 1002 hPa | 0 mm | - | - | - |
| 1777112681 | 10.56° C | 90% | 1002 hPa | 0 mm | - | - | - |
| 1777105103 | 11.11° C | 90% | 1001 hPa | 0 mm | - | - | - |
| 1777104380 | 11.11° C | 89% | 1001 hPa | 0 mm | - | - | - |
| 1777101152 | 11.67° C | 88% | 1001 hPa | 0 mm | - | - | - |
| 1777098291 | 12.22° C | 87% | 1002 hPa | 0 mm | - | - | - |
* Rain since midnight (hover to see other rain measurements)
** Current wind speed in m/s (hover to see current wind gust speed)